sensor_id;sensor_type;location;lat;lon;timestamp;P1;durP1;ratioP1;P2;durP2;ratioP2
71679;SDS011;59512;42.662;23.254;2024-01-30T00:02:26;11.50;;;5.43;;
71679;SDS011;59512;42.662;23.254;2024-01-30T00:04:52;10.60;;;5.18;;
71679;SDS011;59512;42.662;23.254;2024-01-30T00:07:17;9.73;;;5.40;;
71679;SDS011;59512;42.662;23.254;2024-01-30T00:09:43;11.40;;;6.07;;
71679;SDS011;59512;42.662;23.254;2024-01-30T00:12:11;10.50;;;5.55;;
71679;SDS011;59512;42.662;23.254;2024-01-30T00:14:36;10.97;;;5.80;;
71679;SDS011;59512;42.662;23.254;2024-01-30T00:17:02;11.80;;;5.30;;
71679;SDS011;59512;42.662;23.254;2024-01-30T00:19:28;12.02;;;5.90;;
71679;SDS011;59512;42.662;23.254;2024-01-30T00:21:53;10.73;;;5.67;;
71679;SDS011;59512;42.662;23.254;2024-01-30T00:24:20;12.00;;;5.80;;
71679;SDS011;59512;42.662;23.254;2024-01-30T00:26:46;14.13;;;6.55;;
71679;SDS011;59512;42.662;23.254;2024-01-30T00:29:12;16.52;;;6.95;;
71679;SDS011;59512;42.662;23.254;2024-01-30T00:31:44;22.27;;;7.82;;
71679;SDS011;59512;42.662;23.254;2024-01-30T00:34:09;20.93;;;7.60;;
71679;SDS011;59512;42.662;23.254;2024-01-30T00:36:35;17.10;;;7.00;;
71679;SDS011;59512;42.662;23.254;2024-01-30T00:39:00;17.93;;;7.10;;
71679;SDS011;59512;42.662;23.254;2024-01-30T00:41:32;21.48;;;8.05;;
71679;SDS011;59512;42.662;23.254;2024-01-30T00:43:57;27.35;;;9.57;;
71679;SDS011;59512;42.662;23.254;2024-01-30T00:46:23;28.88;;;10.45;;
71679;SDS011;59512;42.662;23.254;2024-01-30T00:48:49;26.73;;;8.80;;
71679;SDS011;59512;42.662;23.254;2024-01-30T00:51:16;17.02;;;7.18;;
71679;SDS011;59512;42.662;23.254;2024-01-30T00:53:42;17.23;;;6.60;;
71679;SDS011;59512;42.662;23.254;2024-01-30T00:56:08;23.23;;;8.65;;
71679;SDS011;59512;42.662;23.254;2024-01-30T00:58:36;21.13;;;8.63;;
71679;SDS011;59512;42.662;23.254;2024-01-30T01:01:01;26.70;;;11.13;;
71679;SDS011;59512;42.662;23.254;2024-01-30T01:03:27;14.70;;;7.40;;
71679;SDS011;59512;42.662;23.254;2024-01-30T01:05:53;14.43;;;6.90;;
71679;SDS011;59512;42.662;23.254;2024-01-30T01:08:18;14.70;;;6.70;;
71679;SDS011;59512;42.662;23.254;2024-01-30T01:10:45;13.77;;;6.80;;
71679;SDS011;59512;42.662;23.254;2024-01-30T01:13:10;10.45;;;5.68;;
71679;SDS011;59512;42.662;23.254;2024-01-30T01:15:36;11.57;;;5.77;;
71679;SDS011;59512;42.662;23.254;2024-01-30T01:18:03;10.27;;;5.53;;
71679;SDS011;59512;42.662;23.254;2024-01-30T01:20:28;12.52;;;5.35;;
71679;SDS011;59512;42.662;23.254;2024-01-30T01:22:55;13.60;;;5.90;;
71679;SDS011;59512;42.662;23.254;2024-01-30T01:25:20;11.23;;;5.83;;
71679;SDS011;59512;42.662;23.254;2024-01-30T01:27:46;11.63;;;6.00;;
71679;SDS011;59512;42.662;23.254;2024-01-30T01:32:48;11.35;;;5.78;;
71679;SDS011;59512;42.662;23.254;2024-01-30T01:35:26;11.55;;;6.35;;
71679;SDS011;59512;42.662;23.254;2024-01-30T01:37:52;13.23;;;5.83;;
71679;SDS011;59512;42.662;23.254;2024-01-30T01:40:23;11.15;;;5.75;;
71679;SDS011;59512;42.662;23.254;2024-01-30T01:42:50;10.68;;;5.43;;
71679;SDS011;59512;42.662;23.254;2024-01-30T01:45:16;12.18;;;5.65;;
71679;SDS011;59512;42.662;23.254;2024-01-30T01:47:41;12.10;;;5.70;;
71679;SDS011;59512;42.662;23.254;2024-01-30T01:50:10;14.50;;;7.28;;
71679;SDS011;59512;42.662;23.254;2024-01-30T01:52:37;10.40;;;5.83;;
71679;SDS011;59512;42.662;23.254;2024-01-30T01:55:05;11.50;;;5.47;;
71679;SDS011;59512;42.662;23.254;2024-01-30T01:57:31;11.07;;;5.55;;
71679;SDS011;59512;42.662;23.254;2024-01-30T01:59:58;11.63;;;5.50;;
71679;SDS011;59512;42.662;23.254;2024-01-30T02:02:24;11.43;;;5.30;;
71679;SDS011;59512;42.662;23.254;2024-01-30T02:04:50;11.93;;;6.20;;
71679;SDS011;59512;42.662;23.254;2024-01-30T02:07:15;12.03;;;6.00;;
71679;SDS011;59512;42.662;23.254;2024-01-30T02:09:41;11.75;;;6.05;;
71679;SDS011;59512;42.662;23.254;2024-01-30T02:12:06;12.47;;;5.30;;
71679;SDS011;59512;42.662;23.254;2024-01-30T02:17:12;11.13;;;5.72;;
71679;SDS011;59512;42.662;23.254;2024-01-30T02:19:38;10.67;;;5.10;;
71679;SDS011;59512;42.662;23.254;2024-01-30T02:22:10;12.38;;;5.40;;
71679;SDS011;59512;42.662;23.254;2024-01-30T02:24:37;10.73;;;5.80;;
71679;SDS011;59512;42.662;23.254;2024-01-30T02:27:02;11.17;;;5.40;;
71679;SDS011;59512;42.662;23.254;2024-01-30T02:29:28;10.40;;;5.32;;
71679;SDS011;59512;42.662;23.254;2024-01-30T02:31:54;9.70;;;4.90;;
71679;SDS011;59512;42.662;23.254;2024-01-30T02:34:19;10.60;;;5.07;;
71679;SDS011;59512;42.662;23.254;2024-01-30T02:36:46;9.93;;;4.90;;
71679;SDS011;59512;42.662;23.254;2024-01-30T02:39:12;10.02;;;5.28;;
71679;SDS011;59512;42.662;23.254;2024-01-30T02:41:37;9.87;;;5.00;;
71679;SDS011;59512;42.662;23.254;2024-01-30T02:44:03;9.37;;;5.07;;
71679;SDS011;59512;42.662;23.254;2024-01-30T02:46:28;9.48;;;4.35;;
71679;SDS011;59512;42.662;23.254;2024-01-30T02:48:54;10.38;;;4.75;;
71679;SDS011;59512;42.662;23.254;2024-01-30T02:51:21;11.33;;;4.70;;
71679;SDS011;59512;42.662;23.254;2024-01-30T02:53:46;9.63;;;4.68;;
71679;SDS011;59512;42.662;23.254;2024-01-30T02:56:12;8.67;;;4.43;;
71679;SDS011;59512;42.662;23.254;2024-01-30T02:58:39;9.85;;;4.82;;
71679;SDS011;59512;42.662;23.254;2024-01-30T03:01:04;10.73;;;5.03;;
71679;SDS011;59512;42.662;23.254;2024-01-30T03:03:30;10.25;;;5.20;;
71679;SDS011;59512;42.662;23.254;2024-01-30T03:05:55;10.33;;;4.97;;
71679;SDS011;59512;42.662;23.254;2024-01-30T03:08:21;9.70;;;4.73;;
71679;SDS011;59512;42.662;23.254;2024-01-30T03:10:46;9.27;;;4.67;;
71679;SDS011;59512;42.662;23.254;2024-01-30T03:13:11;9.63;;;4.03;;
71679;SDS011;59512;42.662;23.254;2024-01-30T03:15:38;9.23;;;4.63;;
71679;SDS011;59512;42.662;23.254;2024-01-30T03:18:03;9.10;;;4.33;;
71679;SDS011;59512;42.662;23.254;2024-01-30T03:20:30;8.90;;;4.20;;
71679;SDS011;59512;42.662;23.254;2024-01-30T03:22:56;10.93;;;4.53;;
71679;SDS011;59512;42.662;23.254;2024-01-30T03:25:22;8.90;;;4.20;;
71679;SDS011;59512;42.662;23.254;2024-01-30T03:27:47;9.70;;;4.50;;
71679;SDS011;59512;42.662;23.254;2024-01-30T03:30:13;11.07;;;4.83;;
71679;SDS011;59512;42.662;23.254;2024-01-30T03:32:38;10.65;;;4.70;;
71679;SDS011;59512;42.662;23.254;2024-01-30T03:35:05;9.70;;;4.38;;
71679;SDS011;59512;42.662;23.254;2024-01-30T03:37:30;9.18;;;4.60;;
71679;SDS011;59512;42.662;23.254;2024-01-30T03:39:56;8.93;;;4.53;;
71679;SDS011;59512;42.662;23.254;2024-01-30T03:42:22;8.90;;;4.45;;
71679;SDS011;59512;42.662;23.254;2024-01-30T03:44:47;9.53;;;4.43;;
71679;SDS011;59512;42.662;23.254;2024-01-30T03:47:13;11.95;;;5.45;;
71679;SDS011;59512;42.662;23.254;2024-01-30T03:49:41;10.00;;;4.10;;
71679;SDS011;59512;42.662;23.254;2024-01-30T03:52:07;11.43;;;4.93;;
71679;SDS011;59512;42.662;23.254;2024-01-30T03:54:33;12.27;;;5.13;;
71679;SDS011;59512;42.662;23.254;2024-01-30T03:56:58;9.10;;;3.90;;
71679;SDS011;59512;42.662;23.254;2024-01-30T03:59:25;8.20;;;3.83;;
71679;SDS011;59512;42.662;23.254;2024-01-30T04:01:50;9.10;;;4.10;;
71679;SDS011;59512;42.662;23.254;2024-01-30T04:04:16;9.38;;;4.50;;
71679;SDS011;59512;42.662;23.254;2024-01-30T04:06:48;10.25;;;3.95;;
71679;SDS011;59512;42.662;23.254;2024-01-30T04:09:13;9.67;;;3.70;;
71679;SDS011;59512;42.662;23.254;2024-01-30T04:11:40;8.55;;;3.85;;
71679;SDS011;59512;42.662;23.254;2024-01-30T04:14:07;9.27;;;4.28;;
71679;SDS011;59512;42.662;23.254;2024-01-30T04:16:33;9.57;;;3.97;;
71679;SDS011;59512;42.662;23.254;2024-01-30T04:18:58;9.27;;;3.47;;
71679;SDS011;59512;42.662;23.254;2024-01-30T04:21:26;8.63;;;3.60;;
71679;SDS011;59512;42.662;23.254;2024-01-30T04:23:51;9.32;;;4.13;;
71679;SDS011;59512;42.662;23.254;2024-01-30T04:26:18;8.70;;;4.10;;
71679;SDS011;59512;42.662;23.254;2024-01-30T04:28:44;7.95;;;3.90;;
71679;SDS011;59512;42.662;23.254;2024-01-30T04:31:12;8.15;;;3.50;;
71679;SDS011;59512;42.662;23.254;2024-01-30T04:33:37;8.93;;;3.73;;
71679;SDS011;59512;42.662;23.254;2024-01-30T04:36:03;8.13;;;4.00;;
71679;SDS011;59512;42.662;23.254;2024-01-30T04:38:33;8.77;;;3.70;;
71679;SDS011;59512;42.662;23.254;2024-01-30T04:40:59;8.77;;;4.10;;
71679;SDS011;59512;42.662;23.254;2024-01-30T04:43:24;9.77;;;3.72;;
71679;SDS011;59512;42.662;23.254;2024-01-30T04:45:51;11.88;;;4.70;;
71679;SDS011;59512;42.662;23.254;2024-01-30T04:48:16;10.43;;;4.30;;
71679;SDS011;59512;42.662;23.254;2024-01-30T04:50:42;9.85;;;4.50;;
71679;SDS011;59512;42.662;23.254;2024-01-30T04:53:07;9.50;;;4.22;;
71679;SDS011;59512;42.662;23.254;2024-01-30T04:55:34;13.93;;;4.90;;
71679;SDS011;59512;42.662;23.254;2024-01-30T04:58:00;10.65;;;4.82;;
71679;SDS011;59512;42.662;23.254;2024-01-30T05:00:26;11.90;;;4.13;;
71679;SDS011;59512;42.662;23.254;2024-01-30T05:02:51;10.93;;;4.82;;
71679;SDS011;59512;42.662;23.254;2024-01-30T05:05:16;60.63;;;28.85;;
71679;SDS011;59512;42.662;23.254;2024-01-30T05:07:42;15.70;;;6.97;;
71679;SDS011;59512;42.662;23.254;2024-01-30T05:10:07;12.20;;;4.73;;
71679;SDS011;59512;42.662;23.254;2024-01-30T05:12:34;11.52;;;5.07;;
71679;SDS011;59512;42.662;23.254;2024-01-30T05:14:59;10.33;;;4.77;;
71679;SDS011;59512;42.662;23.254;2024-01-30T05:17:25;10.47;;;5.10;;
71679;SDS011;59512;42.662;23.254;2024-01-30T05:19:50;8.90;;;4.20;;
71679;SDS011;59512;42.662;23.254;2024-01-30T05:22:15;9.80;;;4.27;;
71679;SDS011;59512;42.662;23.254;2024-01-30T05:24:43;12.05;;;5.22;;
71679;SDS011;59512;42.662;23.254;2024-01-30T05:27:08;14.57;;;7.03;;
71679;SDS011;59512;42.662;23.254;2024-01-30T05:29:33;16.90;;;9.83;;
71679;SDS011;59512;42.662;23.254;2024-01-30T05:31:59;20.25;;;13.90;;
71679;SDS011;59512;42.662;23.254;2024-01-30T05:34:24;40.83;;;26.20;;
71679;SDS011;59512;42.662;23.254;2024-01-30T05:36:50;26.57;;;15.90;;
71679;SDS011;59512;42.662;23.254;2024-01-30T05:39:15;45.70;;;31.13;;
71679;SDS011;59512;42.662;23.254;2024-01-30T05:41:40;25.57;;;16.57;;
71679;SDS011;59512;42.662;23.254;2024-01-30T05:44:06;17.23;;;8.80;;
71679;SDS011;59512;42.662;23.254;2024-01-30T05:46:31;12.77;;;6.47;;
71679;SDS011;59512;42.662;23.254;2024-01-30T05:48:57;14.45;;;6.00;;
71679;SDS011;59512;42.662;23.254;2024-01-30T05:51:22;18.13;;;11.23;;
71679;SDS011;59512;42.662;23.254;2024-01-30T05:53:48;21.50;;;12.10;;
71679;SDS011;59512;42.662;23.254;2024-01-30T05:56:13;30.37;;;17.07;;
71679;SDS011;59512;42.662;23.254;2024-01-30T05:58:38;30.87;;;16.77;;
71679;SDS011;59512;42.662;23.254;2024-01-30T06:01:07;37.40;;;22.55;;
71679;SDS011;59512;42.662;23.254;2024-01-30T06:03:34;62.53;;;38.20;;
71679;SDS011;59512;42.662;23.254;2024-01-30T06:05:59;46.85;;;30.45;;
71679;SDS011;59512;42.662;23.254;2024-01-30T06:08:25;34.53;;;24.33;;
71679;SDS011;59512;42.662;23.254;2024-01-30T06:10:50;22.70;;;14.57;;
71679;SDS011;59512;42.662;23.254;2024-01-30T06:13:15;20.70;;;11.07;;
71679;SDS011;59512;42.662;23.254;2024-01-30T06:15:41;18.30;;;10.23;;
71679;SDS011;59512;42.662;23.254;2024-01-30T06:18:07;17.98;;;10.25;;
71679;SDS011;59512;42.662;23.254;2024-01-30T06:20:32;17.40;;;7.53;;
71679;SDS011;59512;42.662;23.254;2024-01-30T06:22:57;17.17;;;8.00;;
71679;SDS011;59512;42.662;23.254;2024-01-30T06:25:23;14.47;;;7.13;;
71679;SDS011;59512;42.662;23.254;2024-01-30T06:27:48;14.67;;;5.73;;
71679;SDS011;59512;42.662;23.254;2024-01-30T06:30:14;11.02;;;5.60;;
71679;SDS011;59512;42.662;23.254;2024-01-30T06:32:39;12.97;;;6.50;;
71679;SDS011;59512;42.662;23.254;2024-01-30T06:35:05;15.77;;;7.27;;
71679;SDS011;59512;42.662;23.254;2024-01-30T06:37:31;17.80;;;7.68;;
71679;SDS011;59512;42.662;23.254;2024-01-30T06:39:56;16.93;;;7.83;;
71679;SDS011;59512;42.662;23.254;2024-01-30T06:42:21;17.77;;;7.77;;
71679;SDS011;59512;42.662;23.254;2024-01-30T06:44:47;17.40;;;10.50;;
71679;SDS011;59512;42.662;23.254;2024-01-30T06:47:12;16.07;;;7.60;;
71679;SDS011;59512;42.662;23.254;2024-01-30T06:49:37;17.13;;;7.70;;
71679;SDS011;59512;42.662;23.254;2024-01-30T06:52:06;12.75;;;5.80;;
71679;SDS011;59512;42.662;23.254;2024-01-30T06:54:32;15.70;;;7.78;;
71679;SDS011;59512;42.662;23.254;2024-01-30T06:56:58;12.67;;;6.60;;
71679;SDS011;59512;42.662;23.254;2024-01-30T06:59:24;12.73;;;5.63;;
71679;SDS011;59512;42.662;23.254;2024-01-30T07:01:49;9.90;;;4.87;;
71679;SDS011;59512;42.662;23.254;2024-01-30T07:04:16;9.52;;;4.03;;
71679;SDS011;59512;42.662;23.254;2024-01-30T07:06:43;9.85;;;4.70;;
71679;SDS011;59512;42.662;23.254;2024-01-30T07:09:08;11.50;;;5.27;;
71679;SDS011;59512;42.662;23.254;2024-01-30T07:11:34;10.33;;;4.63;;
71679;SDS011;59512;42.662;23.254;2024-01-30T07:13:59;11.05;;;4.97;;
71679;SDS011;59512;42.662;23.254;2024-01-30T07:16:24;11.20;;;4.90;;
71679;SDS011;59512;42.662;23.254;2024-01-30T07:18:50;10.53;;;4.00;;
71679;SDS011;59512;42.662;23.254;2024-01-30T07:21:16;12.67;;;5.13;;
71679;SDS011;59512;42.662;23.254;2024-01-30T07:23:41;10.70;;;4.82;;
71679;SDS011;59512;42.662;23.254;2024-01-30T07:26:08;12.02;;;4.93;;
71679;SDS011;59512;42.662;23.254;2024-01-30T07:28:34;16.60;;;9.57;;
71679;SDS011;59512;42.662;23.254;2024-01-30T07:31:02;9.98;;;4.82;;
71679;SDS011;59512;42.662;23.254;2024-01-30T07:33:30;10.50;;;5.70;;
71679;SDS011;59512;42.662;23.254;2024-01-30T07:35:55;12.97;;;5.10;;
71679;SDS011;59512;42.662;23.254;2024-01-30T07:38:20;11.20;;;5.07;;
71679;SDS011;59512;42.662;23.254;2024-01-30T07:40:46;12.73;;;4.73;;
71679;SDS011;59512;42.662;23.254;2024-01-30T07:43:12;9.75;;;4.53;;
71679;SDS011;59512;42.662;23.254;2024-01-30T07:45:37;8.40;;;3.43;;
71679;SDS011;59512;42.662;23.254;2024-01-30T07:48:04;8.90;;;3.00;;
71679;SDS011;59512;42.662;23.254;2024-01-30T07:50:30;8.25;;;3.47;;
71679;SDS011;59512;42.662;23.254;2024-01-30T07:52:56;11.10;;;4.10;;
71679;SDS011;59512;42.662;23.254;2024-01-30T07:55:22;11.27;;;4.75;;
71679;SDS011;59512;42.662;23.254;2024-01-30T07:57:53;12.40;;;3.95;;
71679;SDS011;59512;42.662;23.254;2024-01-30T08:00:19;10.63;;;3.90;;
71679;SDS011;59512;42.662;23.254;2024-01-30T08:02:45;8.75;;;4.72;;
71679;SDS011;59512;42.662;23.254;2024-01-30T08:05:10;7.67;;;3.57;;
71679;SDS011;59512;42.662;23.254;2024-01-30T08:07:36;10.73;;;4.28;;
71679;SDS011;59512;42.662;23.254;2024-01-30T08:10:02;10.10;;;4.63;;
71679;SDS011;59512;42.662;23.254;2024-01-30T08:12:27;10.80;;;5.37;;
71679;SDS011;59512;42.662;23.254;2024-01-30T08:14:53;12.68;;;4.32;;
71679;SDS011;59512;42.662;23.254;2024-01-30T08:17:18;11.67;;;5.17;;
71679;SDS011;59512;42.662;23.254;2024-01-30T08:19:43;10.50;;;4.53;;
71679;SDS011;59512;42.662;23.254;2024-01-30T08:22:09;9.53;;;4.40;;
71679;SDS011;59512;42.662;23.254;2024-01-30T08:24:34;10.50;;;3.73;;
71679;SDS011;59512;42.662;23.254;2024-01-30T08:27:00;10.95;;;4.28;;
71679;SDS011;59512;42.662;23.254;2024-01-30T08:29:27;9.50;;;4.10;;
71679;SDS011;59512;42.662;23.254;2024-01-30T08:31:53;11.05;;;3.75;;
71679;SDS011;59512;42.662;23.254;2024-01-30T08:34:20;11.93;;;5.57;;
71679;SDS011;59512;42.662;23.254;2024-01-30T08:36:46;9.60;;;4.00;;
71679;SDS011;59512;42.662;23.254;2024-01-30T08:39:12;9.83;;;3.90;;
71679;SDS011;59512;42.662;23.254;2024-01-30T08:41:45;9.73;;;4.77;;
71679;SDS011;59512;42.662;23.254;2024-01-30T08:44:11;9.95;;;4.13;;
71679;SDS011;59512;42.662;23.254;2024-01-30T08:46:36;12.53;;;4.37;;
71679;SDS011;59512;42.662;23.254;2024-01-30T08:49:02;11.30;;;5.43;;
71679;SDS011;59512;42.662;23.254;2024-01-30T08:51:29;12.55;;;5.00;;
71679;SDS011;59512;42.662;23.254;2024-01-30T08:53:54;16.43;;;7.60;;
71679;SDS011;59512;42.662;23.254;2024-01-30T08:56:20;17.43;;;9.13;;
71679;SDS011;59512;42.662;23.254;2024-01-30T08:58:45;10.50;;;5.70;;
71679;SDS011;59512;42.662;23.254;2024-01-30T09:01:10;11.60;;;5.85;;
71679;SDS011;59512;42.662;23.254;2024-01-30T09:03:36;13.82;;;7.28;;
71679;SDS011;59512;42.662;23.254;2024-01-30T09:06:07;14.97;;;7.70;;
71679;SDS011;59512;42.662;23.254;2024-01-30T09:08:33;14.90;;;6.25;;
71679;SDS011;59512;42.662;23.254;2024-01-30T09:10:59;16.17;;;6.70;;
71679;SDS011;59512;42.662;23.254;2024-01-30T09:13:24;21.37;;;8.60;;
71679;SDS011;59512;42.662;23.254;2024-01-30T09:15:49;20.23;;;7.93;;
71679;SDS011;59512;42.662;23.254;2024-01-30T09:18:15;12.50;;;6.45;;
71679;SDS011;59512;42.662;23.254;2024-01-30T09:20:40;14.27;;;6.50;;
71679;SDS011;59512;42.662;23.254;2024-01-30T09:23:05;11.67;;;5.50;;
71679;SDS011;59512;42.662;23.254;2024-01-30T09:25:31;14.03;;;5.60;;
71679;SDS011;59512;42.662;23.254;2024-01-30T09:27:56;13.63;;;6.17;;
71679;SDS011;59512;42.662;23.254;2024-01-30T09:30:22;10.95;;;5.20;;
71679;SDS011;59512;42.662;23.254;2024-01-30T09:32:47;14.88;;;8.10;;
71679;SDS011;59512;42.662;23.254;2024-01-30T09:35:12;24.03;;;11.97;;
71679;SDS011;59512;42.662;23.254;2024-01-30T09:37:38;16.13;;;7.00;;
71679;SDS011;59512;42.662;23.254;2024-01-30T09:40:03;11.40;;;5.50;;
71679;SDS011;59512;42.662;23.254;2024-01-30T09:42:34;15.27;;;6.63;;
71679;SDS011;59512;42.662;23.254;2024-01-30T09:45:04;13.88;;;7.43;;
71679;SDS011;59512;42.662;23.254;2024-01-30T09:47:31;13.47;;;7.33;;
71679;SDS011;59512;42.662;23.254;2024-01-30T09:49:57;14.98;;;7.18;;
71679;SDS011;59512;42.662;23.254;2024-01-30T09:52:23;15.50;;;6.22;;
71679;SDS011;59512;42.662;23.254;2024-01-30T09:54:49;20.60;;;10.00;;
71679;SDS011;59512;42.662;23.254;2024-01-30T09:57:17;15.77;;;9.63;;
71679;SDS011;59512;42.662;23.254;2024-01-30T09:59:43;12.43;;;6.03;;
71679;SDS011;59512;42.662;23.254;2024-01-30T10:02:09;12.65;;;6.53;;
71679;SDS011;59512;42.662;23.254;2024-01-30T10:04:36;13.55;;;7.22;;
71679;SDS011;59512;42.662;23.254;2024-01-30T10:07:02;13.30;;;5.40;;
71679;SDS011;59512;42.662;23.254;2024-01-30T10:09:28;11.45;;;5.60;;
71679;SDS011;59512;42.662;23.254;2024-01-30T10:11:53;11.13;;;5.00;;
71679;SDS011;59512;42.662;23.254;2024-01-30T10:14:18;21.65;;;12.93;;
71679;SDS011;59512;42.662;23.254;2024-01-30T10:16:45;16.67;;;10.88;;
71679;SDS011;59512;42.662;23.254;2024-01-30T10:19:11;13.33;;;6.70;;
71679;SDS011;59512;42.662;23.254;2024-01-30T10:21:36;16.65;;;7.90;;
71679;SDS011;59512;42.662;23.254;2024-01-30T10:24:03;14.55;;;7.28;;
71679;SDS011;59512;42.662;23.254;2024-01-30T10:26:29;12.70;;;6.30;;
71679;SDS011;59512;42.662;23.254;2024-01-30T10:28:58;21.13;;;9.40;;
71679;SDS011;59512;42.662;23.254;2024-01-30T10:31:23;15.37;;;8.00;;
71679;SDS011;59512;42.662;23.254;2024-01-30T10:33:50;12.23;;;5.57;;
71679;SDS011;59512;42.662;23.254;2024-01-30T10:36:16;10.75;;;5.35;;
71679;SDS011;59512;42.662;23.254;2024-01-30T10:38:42;16.73;;;8.77;;
71679;SDS011;59512;42.662;23.254;2024-01-30T10:41:09;19.97;;;11.40;;
71679;SDS011;59512;42.662;23.254;2024-01-30T10:43:40;17.95;;;9.80;;
71679;SDS011;59512;42.662;23.254;2024-01-30T10:46:10;16.80;;;8.40;;
71679;SDS011;59512;42.662;23.254;2024-01-30T10:48:39;19.60;;;10.68;;
71679;SDS011;59512;42.662;23.254;2024-01-30T10:51:08;12.88;;;5.65;;
71679;SDS011;59512;42.662;23.254;2024-01-30T10:53:34;23.10;;;11.27;;
71679;SDS011;59512;42.662;23.254;2024-01-30T10:56:00;26.67;;;14.70;;
71679;SDS011;59512;42.662;23.254;2024-01-30T10:58:26;16.30;;;10.50;;
71679;SDS011;59512;42.662;23.254;2024-01-30T11:00:52;13.07;;;7.53;;
71679;SDS011;59512;42.662;23.254;2024-01-30T11:03:18;13.18;;;7.95;;
71679;SDS011;59512;42.662;23.254;2024-01-30T11:05:48;14.40;;;10.20;;
71679;SDS011;59512;42.662;23.254;2024-01-30T11:08:15;12.30;;;7.05;;
71679;SDS011;59512;42.662;23.254;2024-01-30T11:10:48;14.10;;;7.70;;
71679;SDS011;59512;42.662;23.254;2024-01-30T11:13:13;13.97;;;7.60;;
71679;SDS011;59512;42.662;23.254;2024-01-30T11:15:39;12.63;;;7.03;;
71679;SDS011;59512;42.662;23.254;2024-01-30T11:18:06;13.27;;;6.75;;
71679;SDS011;59512;42.662;23.254;2024-01-30T11:20:32;11.00;;;5.20;;
71679;SDS011;59512;42.662;23.254;2024-01-30T11:23:01;11.27;;;6.53;;
71679;SDS011;59512;42.662;23.254;2024-01-30T11:25:31;11.00;;;5.55;;
71679;SDS011;59512;42.662;23.254;2024-01-30T11:27:57;10.20;;;5.17;;
71679;SDS011;59512;42.662;23.254;2024-01-30T11:30:26;11.43;;;5.13;;
71679;SDS011;59512;42.662;23.254;2024-01-30T11:35:30;11.35;;;5.30;;
71679;SDS011;59512;42.662;23.254;2024-01-30T11:37:57;11.38;;;5.68;;
71679;SDS011;59512;42.662;23.254;2024-01-30T11:40:23;12.95;;;6.00;;
71679;SDS011;59512;42.662;23.254;2024-01-30T11:42:51;11.80;;;5.15;;
71679;SDS011;59512;42.662;23.254;2024-01-30T11:45:17;11.20;;;5.27;;
71679;SDS011;59512;42.662;23.254;2024-01-30T11:47:42;12.95;;;5.30;;
71679;SDS011;59512;42.662;23.254;2024-01-30T11:50:08;10.80;;;5.00;;
71679;SDS011;59512;42.662;23.254;2024-01-30T11:52:35;10.18;;;5.10;;
71679;SDS011;59512;42.662;23.254;2024-01-30T11:55:01;11.25;;;4.68;;
71679;SDS011;59512;42.662;23.254;2024-01-30T11:57:27;9.18;;;4.65;;
71679;SDS011;59512;42.662;23.254;2024-01-30T11:59:54;10.32;;;4.70;;
71679;SDS011;59512;42.662;23.254;2024-01-30T12:02:20;11.17;;;4.30;;
71679;SDS011;59512;42.662;23.254;2024-01-30T12:04:46;13.32;;;6.03;;
71679;SDS011;59512;42.662;23.254;2024-01-30T12:07:11;10.63;;;5.73;;
71679;SDS011;59512;42.662;23.254;2024-01-30T12:09:40;12.02;;;4.78;;
71679;SDS011;59512;42.662;23.254;2024-01-30T12:12:06;12.35;;;4.50;;
71679;SDS011;59512;42.662;23.254;2024-01-30T12:14:36;10.30;;;4.70;;
71679;SDS011;59512;42.662;23.254;2024-01-30T12:17:03;11.20;;;5.18;;
71679;SDS011;59512;42.662;23.254;2024-01-30T12:19:29;11.52;;;4.57;;
71679;SDS011;59512;42.662;23.254;2024-01-30T12:21:55;8.10;;;4.30;;
71679;SDS011;59512;42.662;23.254;2024-01-30T12:24:22;9.93;;;5.20;;
71679;SDS011;59512;42.662;23.254;2024-01-30T12:26:47;14.57;;;7.13;;
71679;SDS011;59512;42.662;23.254;2024-01-30T12:29:14;18.98;;;9.65;;
71679;SDS011;59512;42.662;23.254;2024-01-30T12:31:41;27.83;;;14.80;;
71679;SDS011;59512;42.662;23.254;2024-01-30T12:34:07;20.52;;;10.50;;
71679;SDS011;59512;42.662;23.254;2024-01-30T12:36:33;14.03;;;7.63;;
71679;SDS011;59512;42.662;23.254;2024-01-30T12:38:59;15.18;;;8.07;;
71679;SDS011;59512;42.662;23.254;2024-01-30T12:41:25;15.95;;;8.45;;
71679;SDS011;59512;42.662;23.254;2024-01-30T12:43:53;12.13;;;5.45;;
71679;SDS011;59512;42.662;23.254;2024-01-30T12:46:19;11.10;;;4.33;;
71679;SDS011;59512;42.662;23.254;2024-01-30T12:48:44;12.77;;;8.17;;
71679;SDS011;59512;42.662;23.254;2024-01-30T12:51:10;14.03;;;8.13;;
71679;SDS011;59512;42.662;23.254;2024-01-30T12:53:35;17.35;;;10.65;;
71679;SDS011;59512;42.662;23.254;2024-01-30T12:56:01;13.50;;;8.50;;
71679;SDS011;59512;42.662;23.254;2024-01-30T12:58:26;16.90;;;9.03;;
71679;SDS011;59512;42.662;23.254;2024-01-30T13:00:52;15.43;;;8.10;;
71679;SDS011;59512;42.662;23.254;2024-01-30T13:03:18;25.75;;;14.95;;
71679;SDS011;59512;42.662;23.254;2024-01-30T13:05:44;17.53;;;10.13;;
71679;SDS011;59512;42.662;23.254;2024-01-30T13:08:09;18.67;;;10.77;;
71679;SDS011;59512;42.662;23.254;2024-01-30T13:10:35;19.63;;;13.23;;
71679;SDS011;59512;42.662;23.254;2024-01-30T13:13:00;16.02;;;8.30;;
71679;SDS011;59512;42.662;23.254;2024-01-30T13:15:25;18.40;;;10.43;;
71679;SDS011;59512;42.662;23.254;2024-01-30T13:17:51;15.10;;;8.63;;
71679;SDS011;59512;42.662;23.254;2024-01-30T13:20:19;15.30;;;6.53;;
71679;SDS011;59512;42.662;23.254;2024-01-30T13:22:47;13.88;;;7.13;;
71679;SDS011;59512;42.662;23.254;2024-01-30T13:25:13;16.83;;;9.75;;
71679;SDS011;59512;42.662;23.254;2024-01-30T13:27:39;17.47;;;8.93;;
71679;SDS011;59512;42.662;23.254;2024-01-30T13:30:04;14.30;;;6.63;;
71679;SDS011;59512;42.662;23.254;2024-01-30T13:32:31;13.52;;;7.32;;
71679;SDS011;59512;42.662;23.254;2024-01-30T13:34:57;13.03;;;6.10;;
71679;SDS011;59512;42.662;23.254;2024-01-30T13:37:22;14.35;;;7.95;;
71679;SDS011;59512;42.662;23.254;2024-01-30T13:39:48;13.50;;;7.65;;
71679;SDS011;59512;42.662;23.254;2024-01-30T13:42:13;11.13;;;6.07;;
71679;SDS011;59512;42.662;23.254;2024-01-30T13:44:38;11.93;;;6.00;;
71679;SDS011;59512;42.662;23.254;2024-01-30T13:47:04;14.07;;;6.23;;
71679;SDS011;59512;42.662;23.254;2024-01-30T13:49:29;10.13;;;5.13;;
71679;SDS011;59512;42.662;23.254;2024-01-30T13:51:55;20.00;;;8.23;;
71679;SDS011;59512;42.662;23.254;2024-01-30T13:54:20;19.87;;;9.30;;
71679;SDS011;59512;42.662;23.254;2024-01-30T13:56:45;15.30;;;10.90;;
71679;SDS011;59512;42.662;23.254;2024-01-30T13:59:11;13.63;;;7.27;;
71679;SDS011;59512;42.662;23.254;2024-01-30T14:01:36;10.20;;;5.17;;
71679;SDS011;59512;42.662;23.254;2024-01-30T14:04:02;13.30;;;5.77;;
71679;SDS011;59512;42.662;23.254;2024-01-30T14:06:27;11.48;;;6.53;;
71679;SDS011;59512;42.662;23.254;2024-01-30T14:08:53;10.60;;;6.20;;
71679;SDS011;59512;42.662;23.254;2024-01-30T14:11:19;9.43;;;5.43;;
71679;SDS011;59512;42.662;23.254;2024-01-30T14:13:45;10.17;;;5.30;;
71679;SDS011;59512;42.662;23.254;2024-01-30T14:16:10;13.63;;;6.30;;
71679;SDS011;59512;42.662;23.254;2024-01-30T14:18:36;14.03;;;6.93;;
71679;SDS011;59512;42.662;23.254;2024-01-30T14:21:01;10.47;;;5.33;;
71679;SDS011;59512;42.662;23.254;2024-01-30T14:23:26;14.13;;;5.72;;
71679;SDS011;59512;42.662;23.254;2024-01-30T14:25:52;15.63;;;8.17;;